sensor_id;sensor_type;location;lat;lon;timestamp;P1;durP1;ratioP1;P2;durP2;ratioP2
34567;SDS011;20806;50.746;7.116;2022-07-23T00:02:05;2.30;;;2.13;;
34567;SDS011;20806;50.746;7.116;2022-07-23T00:04:32;2.30;;;2.17;;
34567;SDS011;20806;50.746;7.116;2022-07-23T00:06:58;2.28;;;2.08;;
34567;SDS011;20806;50.746;7.116;2022-07-23T00:09:24;3.40;;;2.30;;
34567;SDS011;20806;50.746;7.116;2022-07-23T00:11:50;2.58;;;1.90;;
34567;SDS011;20806;50.746;7.116;2022-07-23T00:14:16;2.30;;;2.15;;
34567;SDS011;20806;50.746;7.116;2022-07-23T00:16:42;2.30;;;2.10;;
34567;SDS011;20806;50.746;7.116;2022-07-23T00:19:08;2.03;;;1.90;;
34567;SDS011;20806;50.746;7.116;2022-07-23T00:21:34;2.30;;;2.10;;
34567;SDS011;20806;50.746;7.116;2022-07-23T00:24:03;2.40;;;2.20;;
34567;SDS011;20806;50.746;7.116;2022-07-23T00:26:29;2.30;;;2.20;;
34567;SDS011;20806;50.746;7.116;2022-07-23T00:28:55;5.27;;;2.50;;
34567;SDS011;20806;50.746;7.116;2022-07-23T00:31:21;2.60;;;2.40;;
34567;SDS011;20806;50.746;7.116;2022-07-23T00:33:47;2.97;;;2.78;;
34567;SDS011;20806;50.746;7.116;2022-07-23T00:36:14;2.72;;;2.53;;
34567;SDS011;20806;50.746;7.116;2022-07-23T00:38:40;2.72;;;2.47;;
34567;SDS011;20806;50.746;7.116;2022-07-23T00:41:06;2.47;;;2.28;;
34567;SDS011;20806;50.746;7.116;2022-07-23T00:43:32;3.05;;;2.70;;
34567;SDS011;20806;50.746;7.116;2022-07-23T00:45:58;3.00;;;2.70;;
34567;SDS011;20806;50.746;7.116;2022-07-23T00:48:24;3.15;;;2.83;;
34567;SDS011;20806;50.746;7.116;2022-07-23T00:50:50;2.60;;;2.40;;
34567;SDS011;20806;50.746;7.116;2022-07-23T00:53:17;2.57;;;2.40;;
34567;SDS011;20806;50.746;7.116;2022-07-23T00:55:43;2.90;;;2.60;;
34567;SDS011;20806;50.746;7.116;2022-07-23T00:58:09;3.13;;;2.93;;
34567;SDS011;20806;50.746;7.116;2022-07-23T01:00:35;3.10;;;2.80;;
34567;SDS011;20806;50.746;7.116;2022-07-23T01:03:01;3.40;;;2.70;;
34567;SDS011;20806;50.746;7.116;2022-07-23T01:05:27;3.88;;;2.58;;
34567;SDS011;20806;50.746;7.116;2022-07-23T01:07:53;2.90;;;2.70;;
34567;SDS011;20806;50.746;7.116;2022-07-23T01:10:19;2.88;;;2.67;;
34567;SDS011;20806;50.746;7.116;2022-07-23T01:13:07;3.10;;;2.90;;
34567;SDS011;20806;50.746;7.116;2022-07-23T01:15:34;3.00;;;2.80;;
34567;SDS011;20806;50.746;7.116;2022-07-23T01:18:01;3.40;;;3.10;;
34567;SDS011;20806;50.746;7.116;2022-07-23T01:20:27;3.30;;;2.90;;
34567;SDS011;20806;50.746;7.116;2022-07-23T01:22:54;3.45;;;3.03;;
34567;SDS011;20806;50.746;7.116;2022-07-23T01:25:20;3.60;;;3.30;;
34567;SDS011;20806;50.746;7.116;2022-07-23T01:27:46;3.00;;;2.80;;
34567;SDS011;20806;50.746;7.116;2022-07-23T01:30:12;3.33;;;2.90;;
34567;SDS011;20806;50.746;7.116;2022-07-23T01:32:39;3.42;;;2.97;;
34567;SDS011;20806;50.746;7.116;2022-07-23T01:35:05;3.70;;;3.08;;
34567;SDS011;20806;50.746;7.116;2022-07-23T01:37:31;3.00;;;2.75;;
34567;SDS011;20806;50.746;7.116;2022-07-23T01:39:57;3.35;;;2.90;;
34567;SDS011;20806;50.746;7.116;2022-07-23T01:42:24;2.92;;;2.72;;
34567;SDS011;20806;50.746;7.116;2022-07-23T01:44:50;3.13;;;2.93;;
34567;SDS011;20806;50.746;7.116;2022-07-23T01:47:16;3.10;;;2.90;;
34567;SDS011;20806;50.746;7.116;2022-07-23T01:49:42;3.28;;;3.08;;
34567;SDS011;20806;50.746;7.116;2022-07-23T01:52:08;2.90;;;2.70;;
34567;SDS011;20806;50.746;7.116;2022-07-23T01:54:36;3.00;;;2.80;;
34567;SDS011;20806;50.746;7.116;2022-07-23T01:57:03;3.60;;;3.30;;
34567;SDS011;20806;50.746;7.116;2022-07-23T01:59:29;3.70;;;3.40;;
34567;SDS011;20806;50.746;7.116;2022-07-23T02:01:55;3.90;;;3.60;;
34567;SDS011;20806;50.746;7.116;2022-07-23T02:04:22;3.60;;;3.30;;
34567;SDS011;20806;50.746;7.116;2022-07-23T02:06:48;3.90;;;3.60;;
34567;SDS011;20806;50.746;7.116;2022-07-23T02:09:16;3.60;;;3.40;;
34567;SDS011;20806;50.746;7.116;2022-07-23T02:11:42;3.70;;;3.40;;
34567;SDS011;20806;50.746;7.116;2022-07-23T02:14:08;3.50;;;3.20;;
34567;SDS011;20806;50.746;7.116;2022-07-23T02:16:34;3.83;;;3.53;;
34567;SDS011;20806;50.746;7.116;2022-07-23T02:19:00;3.55;;;3.25;;
34567;SDS011;20806;50.746;7.116;2022-07-23T02:21:26;3.35;;;3.15;;
34567;SDS011;20806;50.746;7.116;2022-07-23T02:23:52;4.00;;;3.25;;
34567;SDS011;20806;50.746;7.116;2022-07-23T02:26:18;3.50;;;3.20;;
34567;SDS011;20806;50.746;7.116;2022-07-23T02:28:44;3.20;;;2.90;;
34567;SDS011;20806;50.746;7.116;2022-07-23T02:31:10;3.10;;;2.90;;
34567;SDS011;20806;50.746;7.116;2022-07-23T02:33:36;3.00;;;2.70;;
34567;SDS011;20806;50.746;7.116;2022-07-23T02:36:02;2.78;;;2.58;;
34567;SDS011;20806;50.746;7.116;2022-07-23T02:38:28;3.03;;;2.72;;
34567;SDS011;20806;50.746;7.116;2022-07-23T02:40:54;3.20;;;3.00;;
34567;SDS011;20806;50.746;7.116;2022-07-23T02:43:20;3.20;;;2.90;;
34567;SDS011;20806;50.746;7.116;2022-07-23T02:45:46;2.60;;;2.30;;
34567;SDS011;20806;50.746;7.116;2022-07-23T02:48:12;2.60;;;2.40;;
34567;SDS011;20806;50.746;7.116;2022-07-23T02:50:39;2.70;;;2.50;;
34567;SDS011;20806;50.746;7.116;2022-07-23T02:53:05;2.67;;;2.30;;
34567;SDS011;20806;50.746;7.116;2022-07-23T02:55:31;2.60;;;2.40;;
34567;SDS011;20806;50.746;7.116;2022-07-23T02:57:57;2.40;;;2.30;;
34567;SDS011;20806;50.746;7.116;2022-07-23T03:00:23;2.70;;;2.50;;
34567;SDS011;20806;50.746;7.116;2022-07-23T03:02:49;2.35;;;2.15;;
34567;SDS011;20806;50.746;7.116;2022-07-23T03:05:15;2.28;;;2.17;;
34567;SDS011;20806;50.746;7.116;2022-07-23T03:07:41;2.20;;;2.10;;
34567;SDS011;20806;50.746;7.116;2022-07-23T03:10:07;2.10;;;2.00;;
34567;SDS011;20806;50.746;7.116;2022-07-23T03:12:33;2.15;;;2.05;;
34567;SDS011;20806;50.746;7.116;2022-07-23T03:14:59;2.03;;;1.92;;
34567;SDS011;20806;50.746;7.116;2022-07-23T03:17:25;1.98;;;1.80;;
34567;SDS011;20806;50.746;7.116;2022-07-23T03:19:51;2.08;;;1.80;;
34567;SDS011;20806;50.746;7.116;2022-07-23T03:22:17;1.70;;;1.60;;
34567;SDS011;20806;50.746;7.116;2022-07-23T03:24:43;1.65;;;1.52;;
34567;SDS011;20806;50.746;7.116;2022-07-23T03:27:19;2.15;;;1.90;;
34567;SDS011;20806;50.746;7.116;2022-07-23T03:29:45;1.95;;;1.70;;
34567;SDS011;20806;50.746;7.116;2022-07-23T03:32:11;1.90;;;1.73;;
34567;SDS011;20806;50.746;7.116;2022-07-23T03:34:38;1.90;;;1.80;;
34567;SDS011;20806;50.746;7.116;2022-07-23T03:37:04;1.83;;;1.73;;
34567;SDS011;20806;50.746;7.116;2022-07-23T03:39:30;2.90;;;1.83;;
34567;SDS011;20806;50.746;7.116;2022-07-23T03:41:56;2.13;;;1.80;;
34567;SDS011;20806;50.746;7.116;2022-07-23T03:44:22;2.42;;;1.90;;
34567;SDS011;20806;50.746;7.116;2022-07-23T03:46:48;2.42;;;1.92;;
34567;SDS011;20806;50.746;7.116;2022-07-23T03:49:14;2.17;;;1.90;;
34567;SDS011;20806;50.746;7.116;2022-07-23T03:51:40;1.85;;;1.75;;
34567;SDS011;20806;50.746;7.116;2022-07-23T03:54:06;1.73;;;1.63;;
34567;SDS011;20806;50.746;7.116;2022-07-23T03:56:32;2.38;;;1.83;;
34567;SDS011;20806;50.746;7.116;2022-07-23T03:58:58;2.37;;;2.00;;
34567;SDS011;20806;50.746;7.116;2022-07-23T04:01:24;1.83;;;1.73;;
34567;SDS011;20806;50.746;7.116;2022-07-23T04:03:50;1.83;;;1.73;;
34567;SDS011;20806;50.746;7.116;2022-07-23T04:06:16;1.75;;;1.65;;
34567;SDS011;20806;50.746;7.116;2022-07-23T04:08:42;2.47;;;1.60;;
34567;SDS011;20806;50.746;7.116;2022-07-23T04:11:08;2.53;;;1.63;;
34567;SDS011;20806;50.746;7.116;2022-07-23T04:13:34;2.08;;;1.67;;
34567;SDS011;20806;50.746;7.116;2022-07-23T04:16:00;2.90;;;1.95;;
34567;SDS011;20806;50.746;7.116;2022-07-23T04:18:26;1.85;;;1.70;;
34567;SDS011;20806;50.746;7.116;2022-07-23T04:20:53;2.97;;;1.70;;
34567;SDS011;20806;50.746;7.116;2022-07-23T04:23:19;1.85;;;1.55;;
34567;SDS011;20806;50.746;7.116;2022-07-23T04:25:45;1.60;;;1.50;;
34567;SDS011;20806;50.746;7.116;2022-07-23T04:28:10;1.70;;;1.60;;
34567;SDS011;20806;50.746;7.116;2022-07-23T04:30:36;2.40;;;1.80;;
34567;SDS011;20806;50.746;7.116;2022-07-23T04:33:03;1.80;;;1.70;;
34567;SDS011;20806;50.746;7.116;2022-07-23T04:35:33;1.90;;;1.80;;
34567;SDS011;20806;50.746;7.116;2022-07-23T04:37:59;1.80;;;1.70;;
34567;SDS011;20806;50.746;7.116;2022-07-23T04:40:25;1.70;;;1.60;;
34567;SDS011;20806;50.746;7.116;2022-07-23T04:42:52;2.13;;;1.60;;
34567;SDS011;20806;50.746;7.116;2022-07-23T04:45:18;1.60;;;1.50;;
34567;SDS011;20806;50.746;7.116;2022-07-23T04:47:44;1.88;;;1.75;;
34567;SDS011;20806;50.746;7.116;2022-07-23T04:50:10;1.73;;;1.63;;
34567;SDS011;20806;50.746;7.116;2022-07-23T04:52:37;1.63;;;1.53;;
34567;SDS011;20806;50.746;7.116;2022-07-23T04:55:03;1.85;;;1.60;;
34567;SDS011;20806;50.746;7.116;2022-07-23T04:57:29;1.67;;;1.58;;
34567;SDS011;20806;50.746;7.116;2022-07-23T04:59:55;2.40;;;1.75;;
34567;SDS011;20806;50.746;7.116;2022-07-23T05:02:21;2.13;;;1.85;;
34567;SDS011;20806;50.746;7.116;2022-07-23T05:04:47;2.30;;;1.90;;
34567;SDS011;20806;50.746;7.116;2022-07-23T05:07:13;2.60;;;2.40;;
34567;SDS011;20806;50.746;7.116;2022-07-23T05:09:39;2.17;;;2.00;;
34567;SDS011;20806;50.746;7.116;2022-07-23T05:12:05;2.42;;;2.25;;
34567;SDS011;20806;50.746;7.116;2022-07-23T05:14:31;2.30;;;2.20;;
34567;SDS011;20806;50.746;7.116;2022-07-23T05:17:01;2.40;;;2.30;;
34567;SDS011;20806;50.746;7.116;2022-07-23T05:19:27;2.17;;;2.08;;
34567;SDS011;20806;50.746;7.116;2022-07-23T05:21:53;2.47;;;2.28;;
34567;SDS011;20806;50.746;7.116;2022-07-23T05:24:19;3.00;;;2.70;;
34567;SDS011;20806;50.746;7.116;2022-07-23T05:26:45;3.00;;;2.80;;
34567;SDS011;20806;50.746;7.116;2022-07-23T05:29:11;2.97;;;2.78;;
34567;SDS011;20806;50.746;7.116;2022-07-23T05:31:37;3.30;;;2.80;;
34567;SDS011;20806;50.746;7.116;2022-07-23T05:34:03;3.30;;;2.90;;
34567;SDS011;20806;50.746;7.116;2022-07-23T05:36:30;3.60;;;3.30;;
34567;SDS011;20806;50.746;7.116;2022-07-23T05:38:57;3.40;;;3.10;;
34567;SDS011;20806;50.746;7.116;2022-07-23T05:41:23;3.10;;;2.80;;
34567;SDS011;20806;50.746;7.116;2022-07-23T05:43:50;2.95;;;2.70;;
34567;SDS011;20806;50.746;7.116;2022-07-23T05:46:16;2.80;;;2.60;;
34567;SDS011;20806;50.746;7.116;2022-07-23T05:48:42;3.37;;;3.07;;
34567;SDS011;20806;50.746;7.116;2022-07-23T05:51:10;2.60;;;2.40;;
34567;SDS011;20806;50.746;7.116;2022-07-23T05:53:36;2.97;;;2.78;;
34567;SDS011;20806;50.746;7.116;2022-07-23T05:56:03;3.17;;;2.28;;
34567;SDS011;20806;50.746;7.116;2022-07-23T05:58:29;2.70;;;2.50;;
34567;SDS011;20806;50.746;7.116;2022-07-23T06:00:55;2.40;;;2.20;;
34567;SDS011;20806;50.746;7.116;2022-07-23T06:03:21;2.47;;;2.15;;
34567;SDS011;20806;50.746;7.116;2022-07-23T06:05:47;3.55;;;2.20;;
34567;SDS011;20806;50.746;7.116;2022-07-23T06:08:13;2.75;;;2.10;;
34567;SDS011;20806;50.746;7.116;2022-07-23T06:10:39;2.58;;;2.30;;
34567;SDS011;20806;50.746;7.116;2022-07-23T06:13:05;2.13;;;1.92;;
34567;SDS011;20806;50.746;7.116;2022-07-23T06:15:31;4.22;;;2.20;;
34567;SDS011;20806;50.746;7.116;2022-07-23T06:17:57;2.28;;;2.17;;
34567;SDS011;20806;50.746;7.116;2022-07-23T06:20:23;2.05;;;1.95;;
34567;SDS011;20806;50.746;7.116;2022-07-23T06:22:49;1.80;;;1.70;;
34567;SDS011;20806;50.746;7.116;2022-07-23T06:25:15;1.98;;;1.88;;
34567;SDS011;20806;50.746;7.116;2022-07-23T06:27:41;2.10;;;1.90;;
34567;SDS011;20806;50.746;7.116;2022-07-23T06:30:08;2.00;;;1.90;;
34567;SDS011;20806;50.746;7.116;2022-07-23T06:32:35;2.25;;;2.15;;
34567;SDS011;20806;50.746;7.116;2022-07-23T06:35:01;2.22;;;2.03;;
34567;SDS011;20806;50.746;7.116;2022-07-23T06:37:27;2.53;;;2.33;;
34567;SDS011;20806;50.746;7.116;2022-07-23T06:39:53;2.50;;;2.30;;
34567;SDS011;20806;50.746;7.116;2022-07-23T06:42:19;2.40;;;2.20;;
34567;SDS011;20806;50.746;7.116;2022-07-23T06:44:45;2.50;;;2.30;;
34567;SDS011;20806;50.746;7.116;2022-07-23T06:47:11;2.25;;;2.00;;
34567;SDS011;20806;50.746;7.116;2022-07-23T06:49:37;2.08;;;1.90;;
34567;SDS011;20806;50.746;7.116;2022-07-23T06:52:05;2.17;;;2.08;;
34567;SDS011;20806;50.746;7.116;2022-07-23T06:54:32;2.40;;;2.20;;
34567;SDS011;20806;50.746;7.116;2022-07-23T06:56:58;2.13;;;2.03;;
34567;SDS011;20806;50.746;7.116;2022-07-23T06:59:24;2.10;;;2.00;;
34567;SDS011;20806;50.746;7.116;2022-07-23T07:01:50;2.43;;;2.23;;
34567;SDS011;20806;50.746;7.116;2022-07-23T07:04:16;2.20;;;2.10;;
34567;SDS011;20806;50.746;7.116;2022-07-23T07:06:42;2.40;;;2.20;;
34567;SDS011;20806;50.746;7.116;2022-07-23T07:09:08;2.13;;;1.98;;
34567;SDS011;20806;50.746;7.116;2022-07-23T07:11:34;2.10;;;2.00;;
34567;SDS011;20806;50.746;7.116;2022-07-23T07:14:00;1.70;;;1.60;;
34567;SDS011;20806;50.746;7.116;2022-07-23T07:16:26;2.80;;;2.30;;
34567;SDS011;20806;50.746;7.116;2022-07-23T07:18:52;2.42;;;2.22;;
34567;SDS011;20806;50.746;7.116;2022-07-23T07:21:18;2.60;;;2.40;;
34567;SDS011;20806;50.746;7.116;2022-07-23T07:23:44;2.20;;;2.10;;
34567;SDS011;20806;50.746;7.116;2022-07-23T07:26:10;2.20;;;2.00;;
34567;SDS011;20806;50.746;7.116;2022-07-23T07:28:36;2.13;;;2.03;;
34567;SDS011;20806;50.746;7.116;2022-07-23T07:31:02;2.25;;;2.05;;
34567;SDS011;20806;50.746;7.116;2022-07-23T07:33:29;2.38;;;2.17;;
34567;SDS011;20806;50.746;7.116;2022-07-23T07:35:55;2.17;;;2.00;;
34567;SDS011;20806;50.746;7.116;2022-07-23T07:38:21;1.90;;;1.80;;
34567;SDS011;20806;50.746;7.116;2022-07-23T07:40:47;2.20;;;2.10;;
34567;SDS011;20806;50.746;7.116;2022-07-23T07:43:13;1.83;;;1.73;;
34567;SDS011;20806;50.746;7.116;2022-07-23T07:45:39;2.00;;;1.90;;
34567;SDS011;20806;50.746;7.116;2022-07-23T07:48:05;1.70;;;1.60;;
34567;SDS011;20806;50.746;7.116;2022-07-23T07:50:31;1.50;;;1.40;;
34567;SDS011;20806;50.746;7.116;2022-07-23T07:52:57;1.43;;;1.33;;
34567;SDS011;20806;50.746;7.116;2022-07-23T07:55:23;1.42;;;1.33;;
34567;SDS011;20806;50.746;7.116;2022-07-23T07:57:50;1.40;;;1.30;;
34567;SDS011;20806;50.746;7.116;2022-07-23T08:00:16;1.58;;;1.48;;
34567;SDS011;20806;50.746;7.116;2022-07-23T08:05:08;1.30;;;1.20;;
34567;SDS011;20806;50.746;7.116;2022-07-23T08:07:34;1.50;;;1.37;;
34567;SDS011;20806;50.746;7.116;2022-07-23T08:10:02;2.08;;;1.30;;
34567;SDS011;20806;50.746;7.116;2022-07-23T08:12:28;1.52;;;1.25;;
34567;SDS011;20806;50.746;7.116;2022-07-23T08:15:02;1.57;;;1.47;;
34567;SDS011;20806;50.746;7.116;2022-07-23T08:17:29;1.27;;;1.17;;
34567;SDS011;20806;50.746;7.116;2022-07-23T08:19:55;1.40;;;1.25;;
34567;SDS011;20806;50.746;7.116;2022-07-23T08:22:21;1.60;;;1.23;;
34567;SDS011;20806;50.746;7.116;2022-07-23T08:24:47;2.30;;;1.17;;
34567;SDS011;20806;50.746;7.116;2022-07-23T08:27:13;1.33;;;1.23;;
34567;SDS011;20806;50.746;7.116;2022-07-23T08:29:39;1.80;;;1.70;;
34567;SDS011;20806;50.746;7.116;2022-07-23T08:32:05;2.03;;;1.55;;
34567;SDS011;20806;50.746;7.116;2022-07-23T08:34:31;1.30;;;1.20;;
34567;SDS011;20806;50.746;7.116;2022-07-23T08:36:57;1.40;;;1.30;;
34567;SDS011;20806;50.746;7.116;2022-07-23T08:39:23;2.00;;;1.60;;
34567;SDS011;20806;50.746;7.116;2022-07-23T08:41:49;2.00;;;1.70;;
34567;SDS011;20806;50.746;7.116;2022-07-23T08:44:16;1.97;;;1.30;;
34567;SDS011;20806;50.746;7.116;2022-07-23T08:46:43;1.60;;;1.50;;
34567;SDS011;20806;50.746;7.116;2022-07-23T08:49:09;1.70;;;1.60;;
34567;SDS011;20806;50.746;7.116;2022-07-23T08:51:37;1.60;;;1.50;;
34567;SDS011;20806;50.746;7.116;2022-07-23T08:54:03;1.50;;;1.40;;
34567;SDS011;20806;50.746;7.116;2022-07-23T08:56:29;1.30;;;1.20;;
34567;SDS011;20806;50.746;7.116;2022-07-23T08:58:55;1.42;;;1.33;;
34567;SDS011;20806;50.746;7.116;2022-07-23T09:01:22;2.00;;;1.80;;
34567;SDS011;20806;50.746;7.116;2022-07-23T09:03:48;1.67;;;1.50;;
34567;SDS011;20806;50.746;7.116;2022-07-23T09:06:14;1.50;;;1.40;;
34567;SDS011;20806;50.746;7.116;2022-07-23T09:08:41;1.65;;;1.55;;
34567;SDS011;20806;50.746;7.116;2022-07-23T09:11:08;1.80;;;1.70;;
34567;SDS011;20806;50.746;7.116;2022-07-23T09:13:41;1.47;;;1.37;;
34567;SDS011;20806;50.746;7.116;2022-07-23T09:16:15;1.52;;;1.42;;
34567;SDS011;20806;50.746;7.116;2022-07-23T09:21:13;1.50;;;1.35;;
34567;SDS011;20806;50.746;7.116;2022-07-23T09:26:21;1.50;;;1.40;;
34567;SDS011;20806;50.746;7.116;2022-07-23T09:28:56;1.60;;;1.50;;
34567;SDS011;20806;50.746;7.116;2022-07-23T09:31:23;1.50;;;1.40;;
34567;SDS011;20806;50.746;7.116;2022-07-23T09:33:49;1.50;;;1.40;;
34567;SDS011;20806;50.746;7.116;2022-07-23T09:36:15;1.85;;;1.75;;
34567;SDS011;20806;50.746;7.116;2022-07-23T09:38:52;1.55;;;1.45;;
34567;SDS011;20806;50.746;7.116;2022-07-23T09:41:18;1.42;;;1.40;;
34567;SDS011;20806;50.746;7.116;2022-07-23T09:43:44;1.60;;;1.50;;
34567;SDS011;20806;50.746;7.116;2022-07-23T09:48:43;1.60;;;1.50;;
34567;SDS011;20806;50.746;7.116;2022-07-23T09:51:09;1.50;;;1.40;;
34567;SDS011;20806;50.746;7.116;2022-07-23T09:53:35;1.95;;;1.40;;
34567;SDS011;20806;50.746;7.116;2022-07-23T09:56:01;1.60;;;1.50;;
34567;SDS011;20806;50.746;7.116;2022-07-23T09:58:28;2.57;;;1.80;;
34567;SDS011;20806;50.746;7.116;2022-07-23T10:00:57;2.00;;;1.80;;
34567;SDS011;20806;50.746;7.116;2022-07-23T10:03:24;2.20;;;2.00;;
34567;SDS011;20806;50.746;7.116;2022-07-23T10:05:50;2.00;;;1.80;;
34567;SDS011;20806;50.746;7.116;2022-07-23T10:08:18;1.48;;;1.38;;
34567;SDS011;20806;50.746;7.116;2022-07-23T10:10:48;1.40;;;1.30;;
34567;SDS011;20806;50.746;7.116;2022-07-23T10:13:15;2.17;;;1.30;;
34567;SDS011;20806;50.746;7.116;2022-07-23T10:16:11;1.38;;;1.27;;
34567;SDS011;20806;50.746;7.116;2022-07-23T10:18:37;1.58;;;1.25;;
34567;SDS011;20806;50.746;7.116;2022-07-23T10:21:07;1.30;;;1.20;;
34567;SDS011;20806;50.746;7.116;2022-07-23T10:23:35;1.25;;;1.15;;
34567;SDS011;20806;50.746;7.116;2022-07-23T10:26:06;1.20;;;1.20;;
34567;SDS011;20806;50.746;7.116;2022-07-23T10:41:02;1.42;;;1.33;;
34567;SDS011;20806;50.746;7.116;2022-07-23T10:43:29;1.10;;;1.10;;
34567;SDS011;20806;50.746;7.116;2022-07-23T10:45:56;1.02;;;1.02;;
34567;SDS011;20806;50.746;7.116;2022-07-23T10:48:23;0.95;;;0.95;;
34567;SDS011;20806;50.746;7.116;2022-07-23T10:51:07;1.00;;;1.00;;
34567;SDS011;20806;50.746;7.116;2022-07-23T10:56:48;1.17;;;1.10;;
34567;SDS011;20806;50.746;7.116;2022-07-23T10:59:03;1.10;;;1.10;;
34567;SDS011;20806;50.746;7.116;2022-07-23T11:01:34;1.13;;;1.13;;
34567;SDS011;20806;50.746;7.116;2022-07-23T11:04:01;1.25;;;0.85;;
34567;SDS011;20806;50.746;7.116;2022-07-23T11:17:21;0.82;;;0.82;;
34567;SDS011;20806;50.746;7.116;2022-07-23T11:25:02;1.10;;;1.10;;
34567;SDS011;20806;50.746;7.116;2022-07-23T11:27:41;0.88;;;0.88;;
34567;SDS011;20806;50.746;7.116;2022-07-23T11:30:08;1.10;;;0.90;;
34567;SDS011;20806;50.746;7.116;2022-07-23T11:32:35;0.70;;;0.70;;
34567;SDS011;20806;50.746;7.116;2022-07-23T11:35:17;0.90;;;0.90;;
34567;SDS011;20806;50.746;7.116;2022-07-23T11:37:44;0.80;;;0.80;;
34567;SDS011;20806;50.746;7.116;2022-07-23T11:40:11;1.40;;;1.30;;
34567;SDS011;20806;50.746;7.116;2022-07-23T11:43:00;1.48;;;1.38;;
34567;SDS011;20806;50.746;7.116;2022-07-23T11:45:26;1.20;;;1.10;;
34567;SDS011;20806;50.746;7.116;2022-07-23T11:47:55;1.08;;;1.08;;
34567;SDS011;20806;50.746;7.116;2022-07-23T11:50:22;1.08;;;1.00;;
34567;SDS011;20806;50.746;7.116;2022-07-23T11:52:49;1.20;;;1.10;;
34567;SDS011;20806;50.746;7.116;2022-07-23T11:55:15;1.10;;;1.00;;
34567;SDS011;20806;50.746;7.116;2022-07-23T11:57:41;1.48;;;1.00;;
34567;SDS011;20806;50.746;7.116;2022-07-23T12:02:36;1.25;;;1.00;;
34567;SDS011;20806;50.746;7.116;2022-07-23T12:05:03;1.20;;;1.20;;
34567;SDS011;20806;50.746;7.116;2022-07-23T12:10:03;1.70;;;1.30;;
34567;SDS011;20806;50.746;7.116;2022-07-23T12:12:43;1.40;;;1.30;;
34567;SDS011;20806;50.746;7.116;2022-07-23T12:15:11;1.40;;;1.30;;
34567;SDS011;20806;50.746;7.116;2022-07-23T12:17:38;1.33;;;1.23;;
34567;SDS011;20806;50.746;7.116;2022-07-23T12:20:05;1.80;;;1.33;;
34567;SDS011;20806;50.746;7.116;2022-07-23T12:22:39;1.33;;;1.23;;
34567;SDS011;20806;50.746;7.116;2022-07-23T12:25:07;1.30;;;1.25;;
34567;SDS011;20806;50.746;7.116;2022-07-23T12:27:33;1.50;;;1.40;;
34567;SDS011;20806;50.746;7.116;2022-07-23T12:30:14;1.20;;;1.20;;
34567;SDS011;20806;50.746;7.116;2022-07-23T12:32:42;0.97;;;0.87;;
34567;SDS011;20806;50.746;7.116;2022-07-23T12:35:09;0.90;;;0.90;;
34567;SDS011;20806;50.746;7.116;2022-07-23T12:37:35;0.70;;;0.70;;
34567;SDS011;20806;50.746;7.116;2022-07-23T12:43:06;1.10;;;1.00;;
34567;SDS011;20806;50.746;7.116;2022-07-23T12:45:46;0.70;;;0.70;;
34567;SDS011;20806;50.746;7.116;2022-07-23T12:48:16;0.80;;;0.80;;
34567;SDS011;20806;50.746;7.116;2022-07-23T12:51:03;0.80;;;0.80;;
34567;SDS011;20806;50.746;7.116;2022-07-23T12:53:33;1.30;;;0.70;;
34567;SDS011;20806;50.746;7.116;2022-07-23T12:56:04;1.20;;;0.90;;
34567;SDS011;20806;50.746;7.116;2022-07-23T13:01:06;1.27;;;0.90;;
34567;SDS011;20806;50.746;7.116;2022-07-23T13:06:01;0.80;;;0.80;;
34567;SDS011;20806;50.746;7.116;2022-07-23T13:08:28;1.15;;;0.70;;
34567;SDS011;20806;50.746;7.116;2022-07-23T13:10:54;0.65;;;0.60;;
34567;SDS011;20806;50.746;7.116;2022-07-23T13:13:22;0.70;;;0.70;;
34567;SDS011;20806;50.746;7.116;2022-07-23T13:15:48;0.77;;;0.77;;
34567;SDS011;20806;50.746;7.116;2022-07-23T13:18:14;0.80;;;0.70;;
34567;SDS011;20806;50.746;7.116;2022-07-23T13:20:42;0.75;;;0.70;;
34567;SDS011;20806;50.746;7.116;2022-07-23T13:23:08;0.90;;;0.55;;
34567;SDS011;20806;50.746;7.116;2022-07-23T13:25:34;1.00;;;0.90;;
34567;SDS011;20806;50.746;7.116;2022-07-23T13:28:00;0.90;;;0.90;;
34567;SDS011;20806;50.746;7.116;2022-07-23T13:30:27;0.60;;;0.60;;
34567;SDS011;20806;50.746;7.116;2022-07-23T13:32:53;2.67;;;0.90;;
34567;SDS011;20806;50.746;7.116;2022-07-23T13:35:19;0.80;;;0.80;;
34567;SDS011;20806;50.746;7.116;2022-07-23T13:37:45;1.15;;;1.02;;
34567;SDS011;20806;50.746;7.116;2022-07-23T13:40:11;0.95;;;0.85;;
34567;SDS011;20806;50.746;7.116;2022-07-23T13:42:37;0.85;;;0.85;;
34567;SDS011;20806;50.746;7.116;2022-07-23T13:45:04;1.20;;;0.83;;
34567;SDS011;20806;50.746;7.116;2022-07-23T13:47:30;0.90;;;0.90;;
34567;SDS011;20806;50.746;7.116;2022-07-23T13:49:57;0.90;;;0.90;;
34567;SDS011;20806;50.746;7.116;2022-07-23T13:52:23;0.97;;;0.97;;
34567;SDS011;20806;50.746;7.116;2022-07-23T13:54:49;0.80;;;0.80;;
34567;SDS011;20806;50.746;7.116;2022-07-23T13:57:15;0.93;;;0.90;;
34567;SDS011;20806;50.746;7.116;2022-07-23T13:59:41;0.70;;;0.70;;
34567;SDS011;20806;50.746;7.116;2022-07-23T14:02:07;0.80;;;0.80;;
34567;SDS011;20806;50.746;7.116;2022-07-23T14:04:33;0.70;;;0.70;;
34567;SDS011;20806;50.746;7.116;2022-07-23T14:06:59;0.88;;;0.65;;
34567;SDS011;20806;50.746;7.116;2022-07-23T14:09:25;1.58;;;0.70;;
34567;SDS011;20806;50.746;7.116;2022-07-23T14:11:51;1.60;;;0.90;;
34567;SDS011;20806;50.746;7.116;2022-07-23T14:14:17;0.68;;;0.68;;
34567;SDS011;20806;50.746;7.116;2022-07-23T14:16:44;0.70;;;0.60;;
34567;SDS011;20806;50.746;7.116;2022-07-23T14:19:12;0.60;;;0.55;;
34567;SDS011;20806;50.746;7.116;2022-07-23T14:21:39;0.80;;;0.60;;
34567;SDS011;20806;50.746;7.116;2022-07-23T14:24:05;0.55;;;0.50;;
34567;SDS011;20806;50.746;7.116;2022-07-23T14:26:31;0.70;;;0.70;;
34567;SDS011;20806;50.746;7.116;2022-07-23T14:28:57;1.17;;;0.70;;
34567;SDS011;20806;50.746;7.116;2022-07-23T14:31:23;1.00;;;0.60;;
34567;SDS011;20806;50.746;7.116;2022-07-23T14:33:50;0.95;;;0.68;;
34567;SDS011;20806;50.746;7.116;2022-07-23T14:36:16;1.10;;;0.70;;
34567;SDS011;20806;50.746;7.116;2022-07-23T14:38:42;0.70;;;0.60;;
34567;SDS011;20806;50.746;7.116;2022-07-23T14:41:08;0.80;;;0.80;;
34567;SDS011;20806;50.746;7.116;2022-07-23T14:43:34;0.80;;;0.80;;
34567;SDS011;20806;50.746;7.116;2022-07-23T14:46:00;0.90;;;0.90;;
34567;SDS011;20806;50.746;7.116;2022-07-23T14:48:26;0.90;;;0.90;;
34567;SDS011;20806;50.746;7.116;2022-07-23T14:50:52;0.70;;;0.70;;
34567;SDS011;20806;50.746;7.116;2022-07-23T14:53:18;0.80;;;0.80;;
34567;SDS011;20806;50.746;7.116;2022-07-23T14:55:45;1.60;;;0.80;;
34567;SDS011;20806;50.746;7.116;2022-07-23T14:58:10;1.10;;;0.80;;
34567;SDS011;20806;50.746;7.116;2022-07-23T15:00:36;0.77;;;0.77;;
34567;SDS011;20806;50.746;7.116;2022-07-23T15:03:03;0.60;;;0.60;;
34567;SDS011;20806;50.746;7.116;2022-07-23T15:05:29;1.30;;;0.73;;
34567;SDS011;20806;50.746;7.116;2022-07-23T15:07:55;0.83;;;0.70;;
34567;SDS011;20806;50.746;7.116;2022-07-23T15:10:21;1.25;;;0.80;;
34567;SDS011;20806;50.746;7.116;2022-07-23T15:12:47;1.27;;;0.90;;
34567;SDS011;20806;50.746;7.116;2022-07-23T15:15:13;0.88;;;0.80;;
34567;SDS011;20806;50.746;7.116;2022-07-23T15:17:39;0.80;;;0.77;;
34567;SDS011;20806;50.746;7.116;2022-07-23T15:20:05;0.90;;;0.60;;
34567;SDS011;20806;50.746;7.116;2022-07-23T15:22:32;0.73;;;0.73;;
34567;SDS011;20806;50.746;7.116;2022-07-23T15:24:58;0.70;;;0.70;;
34567;SDS011;20806;50.746;7.116;2022-07-23T15:27:24;0.68;;;0.68;;
34567;SDS011;20806;50.746;7.116;2022-07-23T15:29:50;1.23;;;0.70;;
34567;SDS011;20806;50.746;7.116;2022-07-23T15:32:16;1.00;;;0.70;;
34567;SDS011;20806;50.746;7.116;2022-07-23T15:34:42;1.23;;;0.70;;
34567;SDS011;20806;50.746;7.116;2022-07-23T15:37:08;1.02;;;0.63;;
34567;SDS011;20806;50.746;7.116;2022-07-23T15:39:34;0.90;;;0.77;;
34567;SDS011;20806;50.746;7.116;2022-07-23T15:42:00;1.35;;;0.80;;